Time;durP1;ratioP1;P1;durP2;ratioP2;P2;SDS_P1;SDS_P2;PMS_P1;PMS_P2;Temp;Humidity;BMP_temperature;BMP_pressure;BME280_temperature;BME280_humidity;BME280_pressure;Samples;Min_cycle;Max_cycle;Signal;HPM_P1;HPM_P2
2021/01/21 00:01:04;;;;;;;4.20;3.50;;;5.50;99.90;;;;;;5032232;28;20444;-72
2021/01/21 00:03:33;;;;;;;3.37;3.07;;;5.50;99.90;;;;;;5023219;28;20179;-70
2021/01/21 00:05:58;;;;;;;5.10;3.17;;;5.50;99.90;;;;;;5029477;28;20174;-72
2021/01/21 00:08:24;;;;;;;3.83;3.27;;;5.50;99.90;;;;;;5038027;28;20473;-70
2021/01/21 00:10:49;;;;;;;5.63;3.07;;;5.50;99.90;;;;;;5033942;28;20182;-71
2021/01/21 00:13:15;;;;;;;3.00;2.67;;;5.50;99.90;;;;;;5028164;28;20257;-72
2021/01/21 00:15:41;;;;;;;3.67;3.37;;;5.40;99.90;;;;;;5033198;28;20555;-72
2021/01/21 00:18:06;;;;;;;4.70;3.00;;;5.50;99.90;;;;;;5034792;28;20198;-70
2021/01/21 00:20:32;;;;;;;2.70;2.50;;;5.50;99.90;;;;;;5033728;28;20216;-71
2021/01/21 00:22:57;;;;;;;3.87;3.50;;;5.50;99.90;;;;;;5039393;28;20240;-72
2021/01/21 00:25:23;;;;;;;5.10;3.70;;;5.50;99.90;;;;;;5034993;28;20244;-71
2021/01/21 00:27:48;;;;;;;4.97;3.50;;;5.60;99.90;;;;;;5010656;28;20199;-72
2021/01/21 00:30:15;;;;;;;3.97;3.60;;;5.50;99.90;;;;;;5035702;28;20214;-71
2021/01/21 00:32:40;;;;;;;5.73;2.77;;;5.60;99.90;;;;;;5028523;28;20181;-71
2021/01/21 00:35:06;;;;;;;4.70;3.63;;;5.60;99.90;;;;;;5029956;28;20437;-72
2021/01/21 00:37:32;;;;;;;4.43;3.23;;;5.60;99.90;;;;;;5030569;28;20271;-72
2021/01/21 00:39:57;;;;;;;4.00;3.60;;;5.50;99.90;;;;;;5035087;28;20526;-72
2021/01/21 00:42:23;;;;;;;3.40;2.60;;;5.50;99.90;;;;;;5033944;28;20179;-70
2021/01/21 00:44:48;;;;;;;3.10;2.23;;;5.50;99.90;;;;;;5036163;28;20639;-71
2021/01/21 00:47:14;;;;;;;2.70;2.13;;;5.50;99.90;;;;;;5032891;28;20210;-71
2021/01/21 00:49:39;;;;;;;7.33;5.23;;;5.60;99.90;;;;;;5012616;28;20202;-72
2021/01/21 00:52:05;;;;;;;4.03;2.43;;;5.80;99.90;;;;;;5037032;28;20653;-72
2021/01/21 00:54:30;;;;;;;3.13;2.70;;;5.80;99.90;;;;;;5024405;28;20201;-72
2021/01/21 00:56:56;;;;;;;3.10;2.80;;;5.70;99.90;;;;;;5033277;28;20269;-71
2021/01/21 00:59:21;;;;;;;3.00;2.70;;;5.80;99.90;;;;;;5035866;28;20824;-71
2021/01/21 01:01:47;;;;;;;3.40;2.40;;;5.80;99.90;;;;;;5034078;28;20646;-72
2021/01/21 01:04:12;;;;;;;3.10;2.20;;;5.90;99.90;;;;;;5028408;28;20228;-70
2021/01/21 01:06:38;;;;;;;3.47;2.70;;;6.10;99.90;;;;;;5033576;28;20288;-70
2021/01/21 01:09:04;;;;;;;3.30;2.20;;;6.10;99.90;;;;;;5030736;28;20213;-73
2021/01/21 01:11:30;;;;;;;2.47;2.20;;;6.20;99.90;;;;;;5033995;28;20255;-73
2021/01/21 01:13:55;;;;;;;3.23;2.47;;;6.20;99.90;;;;;;5031680;28;20943;-71
2021/01/21 01:16:21;;;;;;;2.30;2.03;;;6.20;99.90;;;;;;5031573;28;20202;-71
2021/01/21 01:18:46;;;;;;;2.10;1.90;;;6.30;99.90;;;;;;5026122;28;20186;-70
2021/01/21 01:21:12;;;;;;;2.77;1.80;;;6.30;99.90;;;;;;5015922;28;20182;-72
2021/01/21 01:23:37;;;;;;;2.47;1.80;;;6.40;99.90;;;;;;5017333;28;20641;-71
2021/01/21 01:26:03;;;;;;;2.53;2.03;;;6.50;99.90;;;;;;5033085;28;20217;-70
2021/01/21 01:28:28;;;;;;;3.17;2.87;;;6.60;99.90;;;;;;5027264;28;20206;-72
2021/01/21 01:30:54;;;;;;;4.97;2.10;;;6.70;99.90;;;;;;5034234;28;20182;-73
2021/01/21 01:33:19;;;;;;;2.27;2.07;;;6.90;99.90;;;;;;5029531;28;20570;-72
2021/01/21 01:35:45;;;;;;;2.70;1.83;;;7.00;99.90;;;;;;5032340;28;20205;-69
2021/01/21 01:38:13;;;;;;;1.60;1.50;;;7.10;99.90;;;;;;5033751;28;20221;-72
2021/01/21 01:40:39;;;;;;;1.67;1.57;;;7.20;99.90;;;;;;5035335;28;20178;-72
2021/01/21 01:43:04;;;;;;;2.07;1.47;;;7.20;99.90;;;;;;5030917;28;20448;-72
2021/01/21 01:45:30;;;;;;;2.50;1.53;;;7.30;99.90;;;;;;5030976;28;20201;-71
2021/01/21 01:47:55;;;;;;;1.63;1.47;;;7.30;99.90;;;;;;5009284;28;20199;-71
2021/01/21 01:50:23;;;;;;;2.57;1.10;;;7.40;99.90;;;;;;5018219;28;20209;-73
2021/01/21 01:52:52;;;;;;;3.00;1.40;;;7.40;99.90;;;;;;5035498;28;20213;-72
2021/01/21 01:55:18;;;;;;;5.80;1.63;;;7.40;99.90;;;;;;5024494;28;20466;-72
2021/01/21 01:57:48;;;;;;;2.80;1.43;;;7.40;99.90;;;;;;5028216;28;20549;-71
2021/01/21 02:00:13;;;;;;;1.77;1.57;;;7.40;99.90;;;;;;5032230;28;20187;-70
2021/01/21 02:02:40;;;;;;;1.63;1.47;;;7.40;99.90;;;;;;5032301;28;20938;-72
2021/01/21 02:05:06;;;;;;;2.17;1.80;;;7.40;99.90;;;;;;5032773;28;20182;-73
2021/01/21 02:07:31;;;;;;;3.33;1.67;;;7.40;99.90;;;;;;5033828;28;20519;-72
2021/01/21 02:10:00;;;;;;;2.40;1.80;;;7.50;99.90;;;;;;5032968;28;20476;-73
2021/01/21 02:12:41;;;;;;;1.80;1.70;;;7.50;99.90;;;;;;5030025;28;20187;-70
2021/01/21 02:15:33;;;;;;;1.43;1.17;;;7.60;99.90;;;;;;5032050;28;20437;-73
2021/01/21 02:18:08;;;;;;;3.43;1.57;;;7.60;99.90;;;;;;5008078;28;20495;-70
2021/01/21 02:21:22;;;;;;;2.07;1.40;;;7.70;99.90;;;;;;5035836;28;20429;-72
2021/01/21 02:24:25;;;;;;;1.67;1.57;;;7.70;99.90;;;;;;5021370;28;20442;-70
2021/01/21 02:26:58;;;;;;;3.07;1.73;;;7.60;99.90;;;;;;5021488;28;20457;-71
2021/01/21 02:29:26;;;;;;;3.37;1.70;;;7.60;99.90;;;;;;5033917;28;20469;-71
2021/01/21 02:32:00;;;;;;;2.33;1.60;;;7.50;99.90;;;;;;5035588;28;20441;-70
2021/01/21 02:34:31;;;;;;;1.60;1.43;;;7.50;99.90;;;;;;5031171;28;20440;-71
2021/01/21 02:36:58;;;;;;;3.07;1.43;;;7.40;99.90;;;;;;5025888;28;20453;-72
2021/01/21 02:39:26;;;;;;;2.37;2.17;;;7.40;99.90;;;;;;5035641;28;20499;-71
2021/01/21 02:41:52;;;;;;;2.17;1.80;;;7.40;99.90;;;;;;5029672;28;20531;-72
2021/01/21 02:44:17;;;;;;;2.03;1.83;;;7.40;99.90;;;;;;5033795;28;20472;-71
2021/01/21 02:46:46;;;;;;;2.40;1.53;;;7.30;99.90;;;;;;5031355;28;20900;-72
2021/01/21 02:49:12;;;;;;;1.43;1.33;;;7.30;99.90;;;;;;5034498;28;20356;-72
2021/01/21 02:52:02;;;;;;;5.37;1.33;;;7.30;99.90;;;;;;5029442;28;20480;-71
2021/01/21 02:54:55;;;;;;;1.93;1.60;;;7.30;99.90;;;;;;5026138;28;20444;-73
2021/01/21 02:57:21;;;;;;;1.70;1.60;;;7.30;99.90;;;;;;5031379;28;20476;-70
2021/01/21 02:59:49;;;;;;;1.63;1.47;;;7.40;99.90;;;;;;5030793;28;20440;-71
2021/01/21 03:02:17;;;;;;;1.57;1.40;;;7.50;99.90;;;;;;5026117;28;20532;-70
2021/01/21 03:04:44;;;;;;;1.30;1.20;;;7.60;99.90;;;;;;5028355;28;20462;-71
2021/01/21 03:07:11;;;;;;;1.73;1.63;;;7.70;99.90;;;;;;5033824;28;21073;-71
2021/01/21 03:09:43;;;;;;;1.90;1.40;;;7.80;99.90;;;;;;5032585;28;20460;-71
2021/01/21 03:12:21;;;;;;;1.93;1.43;;;7.80;99.90;;;;;;5026817;28;20472;-72
2021/01/21 03:14:49;;;;;;;1.53;1.43;;;7.90;99.90;;;;;;5033672;28;20443;-70
2021/01/21 03:17:15;;;;;;;1.97;1.30;;;7.90;99.90;;;;;;5028668;28;20453;-70
2021/01/21 03:19:40;;;;;;;2.87;1.53;;;7.90;99.90;;;;;;5020742;28;20535;-71
2021/01/21 03:22:06;;;;;;;1.50;1.40;;;8.00;99.90;;;;;;5033996;28;20514;-72
2021/01/21 03:24:32;;;;;;;1.37;1.27;;;7.90;99.90;;;;;;5036462;28;20241;-72
2021/01/21 03:26:57;;;;;;;1.67;1.20;;;7.90;99.90;;;;;;5033050;28;20673;-70
2021/01/21 03:29:24;;;;;;;1.67;1.27;;;7.90;99.90;;;;;;5027614;28;20206;-69
2021/01/21 03:31:50;;;;;;;1.57;1.30;;;7.90;99.90;;;;;;5021763;28;20177;-71
2021/01/21 03:34:15;;;;;;;2.43;1.30;;;7.90;99.90;;;;;;5038476;28;20947;-71
2021/01/21 03:36:41;;;;;;;2.20;1.53;;;7.90;99.90;;;;;;5037508;28;20260;-70
2021/01/21 03:39:06;;;;;;;2.10;1.53;;;7.90;99.90;;;;;;5018028;28;20240;-71
2021/01/21 03:41:32;;;;;;;3.63;1.90;;;7.90;99.90;;;;;;5035949;28;20185;-71
2021/01/21 03:43:57;;;;;;;1.40;1.30;;;7.90;99.90;;;;;;5039645;28;20190;-70
2021/01/21 03:46:23;;;;;;;2.10;1.63;;;7.90;99.90;;;;;;5017432;28;20274;-72
2021/01/21 03:48:48;;;;;;;2.50;1.63;;;7.90;99.90;;;;;;5026759;28;20210;-72
2021/01/21 03:51:14;;;;;;;1.67;1.23;;;7.90;99.90;;;;;;5033411;28;20206;-71
2021/01/21 03:53:40;;;;;;;3.70;1.50;;;7.90;99.90;;;;;;5036971;28;20246;-70
2021/01/21 03:56:05;;;;;;;1.53;1.33;;;8.00;99.90;;;;;;5031510;28;20192;-71
2021/01/21 03:58:31;;;;;;;1.37;1.20;;;7.90;99.90;;;;;;5026700;28;20257;-72
2021/01/21 04:00:56;;;;;;;2.17;1.70;;;7.90;99.90;;;;;;5037357;28;20253;-72
2021/01/21 04:03:22;;;;;;;2.93;1.37;;;7.90;99.90;;;;;;5039544;28;20633;-72
2021/01/21 04:05:47;;;;;;;2.70;1.60;;;7.90;99.90;;;;;;5040567;28;20200;-71
2021/01/21 04:08:13;;;;;;;2.70;1.60;;;7.90;99.90;;;;;;5034985;28;20866;-70
2021/01/21 04:10:38;;;;;;;1.90;1.40;;;7.80;99.90;;;;;;5027800;28;20174;-70
2021/01/21 04:13:04;;;;;;;1.10;1.10;;;7.80;99.90;;;;;;5031843;28;20186;-69
2021/01/21 04:15:29;;;;;;;1.73;1.20;;;7.80;99.90;;;;;;5031588;28;20186;-69
2021/01/21 04:17:55;;;;;;;1.43;1.20;;;7.80;99.90;;;;;;5031939;28;20232;-69
2021/01/21 04:20:20;;;;;;;2.00;1.37;;;7.90;99.90;;;;;;5032024;28;20665;-71
2021/01/21 04:22:46;;;;;;;1.47;1.20;;;7.90;99.90;;;;;;5026990;28;20189;-70
2021/01/21 04:25:12;;;;;;;2.60;1.40;;;7.90;99.90;;;;;;5013373;28;20649;-70
2021/01/21 04:27:37;;;;;;;1.47;1.30;;;7.90;99.90;;;;;;5028333;28;20212;-69
2021/01/21 04:30:04;;;;;;;2.97;1.20;;;7.90;99.90;;;;;;5031892;28;20575;-69
2021/01/21 04:32:30;;;;;;;2.80;1.30;;;8.00;99.90;;;;;;5031621;28;20193;-70
2021/01/21 04:34:55;;;;;;;1.43;1.17;;;8.00;99.90;;;;;;5020398;28;20448;-70
2021/01/21 04:37:21;;;;;;;1.47;1.20;;;8.10;99.90;;;;;;5029605;28;20838;-69
2021/01/21 04:39:46;;;;;;;1.60;1.33;;;8.10;99.90;;;;;;5031845;28;20205;-69
2021/01/21 04:42:12;;;;;;;2.10;1.20;;;8.10;99.90;;;;;;5028662;28;20185;-70
2021/01/21 04:44:38;;;;;;;1.50;1.30;;;8.10;99.90;;;;;;5025017;28;20242;-70
2021/01/21 04:47:04;;;;;;;1.40;1.20;;;8.10;99.90;;;;;;5029756;28;20276;-70
2021/01/21 04:49:32;;;;;;;2.30;1.93;;;8.20;99.90;;;;;;5030132;28;20205;-69
2021/01/21 04:52:02;;;;;;;0.60;0.60;;;8.20;99.90;;;;;;5013543;28;20437;-69
2021/01/21 04:54:32;;;;;;;2.00;1.30;;;8.20;99.90;;;;;;5031951;28;20849;-70
2021/01/21 04:57:04;;;;;;;1.10;1.00;;;8.20;99.90;;;;;;5009881;28;20457;-69
2021/01/21 04:59:34;;;;;;;1.87;1.10;;;8.20;99.90;;;;;;5016609;28;20438;-69
2021/01/21 05:02:01;;;;;;;4.30;1.40;;;8.10;99.90;;;;;;5023096;28;21006;-70
2021/01/21 05:04:27;;;;;;;2.80;1.10;;;8.10;99.90;;;;;;5030832;28;20958;-70
2021/01/21 05:06:53;;;;;;;1.60;1.23;;;8.10;99.90;;;;;;5026745;28;20468;-69
2021/01/21 05:09:20;;;;;;;1.13;0.80;;;8.10;99.90;;;;;;5026189;28;20209;-70
2021/01/21 05:11:47;;;;;;;2.93;1.60;;;8.20;99.90;;;;;;5030207;28;20460;-69
2021/01/21 05:14:12;;;;;;;1.87;1.23;;;8.30;99.90;;;;;;5030842;28;20425;-70
2021/01/21 05:16:39;;;;;;;2.00;1.13;;;8.30;99.90;;;;;;5022689;28;20798;-69
2021/01/21 05:19:05;;;;;;;1.50;1.20;;;8.30;99.90;;;;;;5030757;28;20196;-70
2021/01/21 05:21:31;;;;;;;1.10;1.10;;;8.40;99.90;;;;;;5031229;28;20425;-69
2021/01/21 05:23:56;;;;;;;1.03;0.97;;;8.40;99.90;;;;;;5022259;28;20444;-69
2021/01/21 05:26:25;;;;;;;1.70;0.80;;;8.40;99.90;;;;;;5021811;28;20206;-70
2021/01/21 05:28:51;;;;;;;6.53;1.50;;;8.50;99.90;;;;;;5028635;28;20202;-70
2021/01/21 05:31:18;;;;;;;2.50;1.63;;;8.50;99.90;;;;;;5026369;28;20433;-70
2021/01/21 05:33:44;;;;;;;1.10;0.83;;;8.50;99.90;;;;;;5012680;28;20523;-70
2021/01/21 05:36:12;;;;;;;1.20;1.00;;;8.50;99.90;;;;;;5027010;28;20433;-70
2021/01/21 05:39:01;;;;;;;1.63;1.27;;;8.50;99.90;;;;;;5027312;28;20459;-70
2021/01/21 05:41:27;;;;;;;2.00;0.90;;;8.50;99.90;;;;;;5030410;28;20785;-69
2021/01/21 05:43:53;;;;;;;3.23;1.17;;;8.50;99.90;;;;;;5030882;28;20986;-69
2021/01/21 05:46:20;;;;;;;1.53;1.40;;;8.60;99.80;;;;;;5030131;28;20441;-69
2021/01/21 05:48:45;;;;;;;1.93;1.30;;;8.60;99.80;;;;;;5030158;28;20500;-70
2021/01/21 05:51:12;;;;;;;1.37;1.10;;;8.60;99.90;;;;;;5013213;28;20461;-68
2021/01/21 05:53:39;;;;;;;4.80;1.80;;;8.60;99.80;;;;;;5030726;28;20409;-68
2021/01/21 05:56:09;;;;;;;1.47;1.13;;;8.60;99.90;;;;;;5030028;28;20441;-70
2021/01/21 05:58:36;;;;;;;1.83;1.07;;;8.60;99.70;;;;;;5030736;28;20431;-70
2021/01/21 06:01:01;;;;;;;2.30;0.90;;;8.60;99.70;;;;;;5030815;28;20483;-69
2021/01/21 06:03:27;;;;;;;1.60;1.50;;;8.60;99.30;;;;;;5031182;28;20835;-70
2021/01/21 06:05:56;;;;;;;2.87;1.10;;;8.60;99.70;;;;;;5029993;28;20193;-69
2021/01/21 06:08:21;;;;;;;1.10;1.10;;;8.60;99.50;;;;;;5029414;28;20464;-70
2021/01/21 06:10:47;;;;;;;1.23;1.13;;;8.60;99.50;;;;;;5030010;28;20429;-68
2021/01/21 06:13:15;;;;;;;1.57;1.10;;;8.60;99.50;;;;;;5029587;28;20183;-69
2021/01/21 06:15:41;;;;;;;1.10;1.00;;;8.60;99.30;;;;;;5029523;28;20174;-69
2021/01/21 06:18:07;;;;;;;1.93;1.30;;;8.60;99.30;;;;;;5029783;28;20832;-69
2021/01/21 06:20:33;;;;;;;1.70;1.10;;;8.60;99.30;;;;;;5029197;28;20436;-69
2021/01/21 06:23:02;;;;;;;4.00;0.90;;;8.60;99.20;;;;;;5030089;28;20181;-70
2021/01/21 06:25:30;;;;;;;1.13;1.03;;;8.70;98.70;;;;;;5029118;28;20527;-69
2021/01/21 06:27:56;;;;;;;1.57;1.17;;;8.70;98.80;;;;;;5030056;28;20514;-70
2021/01/21 06:30:22;;;;;;;2.03;1.50;;;8.70;98.60;;;;;;5029733;28;20488;-68
2021/01/21 06:33:04;;;;;;;1.70;1.20;;;8.70;98.60;;;;;;5029987;28;20448;-67
2021/01/21 06:35:35;;;;;;;2.60;1.20;;;8.70;98.80;;;;;;5029405;28;20427;-66
2021/01/21 06:38:22;;;;;;;1.33;1.23;;;8.70;98.40;;;;;;5029751;28;20449;-68
2021/01/21 06:40:51;;;;;;;2.23;1.30;;;8.70;98.60;;;;;;5030014;28;20443;-68
2021/01/21 06:43:28;;;;;;;1.43;1.20;;;8.70;98.70;;;;;;5030230;28;21025;-68
2021/01/21 06:45:57;;;;;;;1.50;1.30;;;8.70;98.90;;;;;;5025588;28;20432;-69
2021/01/21 06:48:22;;;;;;;2.17;1.20;;;8.80;98.70;;;;;;5029458;28;20881;-69
2021/01/21 06:50:48;;;;;;;2.87;1.13;;;8.80;98.80;;;;;;5028486;28;20516;-69
2021/01/21 06:53:14;;;;;;;1.50;1.10;;;8.90;98.60;;;;;;5026041;28;20202;-69
2021/01/21 06:55:47;;;;;;;1.47;1.10;;;9.00;98.90;;;;;;5028966;28;20915;-70
2021/01/21 06:58:13;;;;;;;4.20;1.40;;;9.10;98.70;;;;;;5030016;28;20444;-69
2021/01/21 07:00:43;;;;;;;1.90;1.70;;;9.10;98.70;;;;;;5029332;28;20441;-69
2021/01/21 07:03:29;;;;;;;2.03;1.00;;;9.10;99.30;;;;;;5011442;28;20437;-69
2021/01/21 07:06:02;;;;;;;5.43;1.30;;;9.10;99.70;;;;;;5030766;28;20856;-69
2021/01/21 07:08:28;;;;;;;2.13;1.17;;;9.20;99.90;;;;;;5032855;28;20448;-69
2021/01/21 07:11:00;;;;;;;1.40;1.30;;;9.10;99.90;;;;;;5032768;28;20467;-70
2021/01/21 07:13:28;;;;;;;1.93;0.90;;;9.10;99.90;;;;;;5032774;28;20425;-69
2021/01/21 07:16:06;;;;;;;1.10;1.00;;;9.10;99.90;;;;;;5032320;28;20460;-70
2021/01/21 07:18:33;;;;;;;4.13;1.10;;;9.10;99.90;;;;;;5032742;28;20437;-69
2021/01/21 07:21:16;;;;;;;3.80;1.73;;;9.00;99.90;;;;;;5032180;28;20523;-69
2021/01/21 07:23:51;;;;;;;1.60;1.20;;;9.10;99.90;;;;;;5029256;28;20428;-69
2021/01/21 07:26:36;;;;;;;2.40;0.90;;;9.10;99.90;;;;;;5031655;28;20877;-69
2021/01/21 07:29:06;;;;;;;1.03;0.93;;;9.10;99.90;;;;;;5032519;28;20599;-69
2021/01/21 07:31:50;;;;;;;1.70;1.60;;;9.10;99.90;;;;;;5032430;28;20436;-69
2021/01/21 07:34:42;;;;;;;2.20;0.90;;;9.10;99.90;;;;;;5021709;28;20443;-69
2021/01/21 07:37:11;;;;;;;1.27;1.17;;;9.10;99.90;;;;;;5007325;28;20527;-71
2021/01/21 07:39:59;;;;;;;1.20;1.10;;;9.10;99.90;;;;;;5032556;28;20889;-69
2021/01/21 07:42:37;;;;;;;1.47;1.00;;;9.00;99.90;;;;;;5027981;28;20460;-69
2021/01/21 07:45:08;;;;;;;1.23;1.00;;;9.00;99.90;;;;;;5030846;28;20518;-69
2021/01/21 07:47:35;;;;;;;1.10;0.93;;;9.00;99.90;;;;;;5032404;28;20459;-70
2021/01/21 07:50:21;;;;;;;1.20;1.10;;;9.10;99.90;;;;;;5014998;28;21036;-70
2021/01/21 07:52:51;;;;;;;3.10;2.00;;;9.10;99.90;;;;;;5031581;28;20447;-70
2021/01/21 07:55:35;;;;;;;1.30;0.80;;;9.10;99.90;;;;;;5030843;28;20424;-70
2021/01/21 07:58:39;;;;;;;1.60;1.40;;;9.20;99.90;;;;;;5026810;28;20483;-69
2021/01/21 08:01:09;;;;;;;1.13;1.03;;;9.50;99.90;;;;;;4967780;28;20835;-70
2021/01/21 08:03:41;;;;;;;1.67;1.30;;;9.80;99.90;;;;;;5018625;28;20444;-70
2021/01/21 08:06:10;;;;;;;1.10;1.03;;;9.90;99.90;;;;;;5021952;28;20440;-69
2021/01/21 08:08:40;;;;;;;0.97;0.87;;;9.90;99.90;;;;;;5025525;28;20872;-70
2021/01/21 08:11:15;;;;;;;1.60;0.80;;;10.00;99.90;;;;;;5010213;28;20465;-70
2021/01/21 08:13:42;;;;;;;1.53;1.30;;;10.40;99.90;;;;;;5028933;28;20785;-70
2021/01/21 08:16:19;;;;;;;1.83;0.90;;;10.80;99.90;;;;;;5028024;28;20441;-69
2021/01/21 08:18:45;;;;;;;1.87;1.60;;;11.30;99.90;;;;;;5025717;28;20492;-70
2021/01/21 08:21:17;;;;;;;1.40;1.30;;;11.50;99.90;;;;;;5010706;28;20463;-70
2021/01/21 08:23:56;;;;;;;1.10;1.00;;;11.60;99.90;;;;;;5028746;28;20437;-70
2021/01/21 08:26:23;;;;;;;1.07;0.97;;;11.70;99.90;;;;;;5027983;28;20506;-69
2021/01/21 08:28:49;;;;;;;1.50;1.23;;;11.70;99.90;;;;;;5028167;28;20514;-69
2021/01/21 08:31:17;;;;;;;0.90;0.90;;;11.50;99.90;;;;;;5028211;28;20464;-69
2021/01/21 08:33:49;;;;;;;1.60;1.20;;;11.70;99.90;;;;;;5028456;28;20512;-71
2021/01/21 08:36:16;;;;;;;1.20;1.10;;;12.00;99.90;;;;;;5003457;28;20433;-71
2021/01/21 08:38:44;;;;;;;1.23;1.07;;;12.40;99.90;;;;;;5027891;28;20983;-70
2021/01/21 08:41:15;;;;;;;0.90;0.80;;;12.60;99.90;;;;;;5028401;28;20444;-69
2021/01/21 08:43:43;;;;;;;1.70;1.40;;;12.50;99.90;;;;;;5028275;28;20461;-69
2021/01/21 08:46:23;;;;;;;1.73;1.57;;;12.00;99.90;;;;;;5027980;28;20945;-71
2021/01/21 08:48:50;;;;;;;1.50;1.10;;;11.90;99.90;;;;;;5028411;28;20468;-69
2021/01/21 08:51:24;;;;;;;1.40;1.13;;;12.30;99.90;;;;;;5028483;28;20524;-69
2021/01/21 08:53:50;;;;;;;3.50;1.00;;;11.70;99.90;;;;;;5028412;28;20432;-69
2021/01/21 08:56:16;;;;;;;1.30;1.20;;;11.30;99.90;;;;;;5027602;28;20432;-69
2021/01/21 08:58:42;;;;;;;1.20;1.10;;;10.80;99.90;;;;;;5028409;28;20307;-69
2021/01/21 09:01:10;;;;;;;1.30;1.20;;;10.70;99.90;;;;;;5028211;28;20261;-70
2021/01/21 09:03:38;;;;;;;2.20;0.90;;;10.70;99.90;;;;;;5028000;28;20178;-69
2021/01/21 09:06:08;;;;;;;1.43;1.20;;;10.70;99.90;;;;;;5027921;28;20483;-69
2021/01/21 09:08:51;;;;;;;4.50;1.43;;;11.40;99.90;;;;;;5027763;28;20555;-70
2021/01/21 09:11:37;;;;;;;0.80;0.80;;;12.70;99.90;;;;;;5022690;28;20947;-70
2021/01/21 09:14:13;;;;;;;1.00;0.90;;;13.30;99.90;;;;;;5027900;28;20510;-69
2021/01/21 09:16:46;;;;;;;1.20;1.00;;;13.50;99.90;;;;;;5027502;28;20531;-69
2021/01/21 09:19:17;;;;;;;1.50;1.40;;;13.70;99.90;;;;;;5017680;28;20836;-70
2021/01/21 09:22:01;;;;;;;4.10;1.17;;;14.10;99.90;;;;;;5027748;28;20436;-70
2021/01/21 09:24:28;;;;;;;2.33;1.37;;;14.90;98.80;;;;;;5026601;28;20575;-70
2021/01/21 09:27:13;;;;;;;1.70;1.37;;;15.30;97.60;;;;;;5026828;28;21170;-69
2021/01/21 09:29:50;;;;;;;1.23;1.13;;;15.10;97.20;;;;;;5027323;28;20828;-70
2021/01/21 09:32:17;;;;;;;3.17;1.30;;;15.20;97.10;;;;;;5020950;28;20440;-70
2021/01/21 09:34:59;;;;;;;1.73;1.60;;;16.00;95.60;;;;;;5026812;28;20943;-70
2021/01/21 09:37:30;;;;;;;3.27;1.43;;;15.50;95.50;;;;;;5017226;28;20448;-70
2021/01/21 09:39:56;;;;;;;2.03;1.70;;;14.90;96.60;;;;;;5027792;28;20887;-70
2021/01/21 09:42:22;;;;;;;2.47;1.63;;;14.30;97.50;;;;;;5027286;28;20436;-69
2021/01/21 09:44:48;;;;;;;1.50;1.40;;;14.00;98.40;;;;;;5026711;28;20185;-69
2021/01/21 09:47:14;;;;;;;1.97;1.77;;;13.50;99.30;;;;;;5027234;28;20202;-68
2021/01/21 09:49:44;;;;;;;1.90;1.73;;;13.40;99.90;;;;;;5026800;28;20296;-68
2021/01/21 09:52:09;;;;;;;1.77;1.60;;;14.20;99.50;;;;;;5026750;28;20183;-70
2021/01/21 09:54:36;;;;;;;1.27;1.17;;;15.20;97.90;;;;;;5026772;28;20440;-70
2021/01/21 09:57:01;;;;;;;2.40;1.60;;;15.90;95.80;;;;;;5026711;28;20469;-70
2021/01/21 09:59:27;;;;;;;1.60;1.50;;;16.20;95.10;;;;;;5026798;28;20433;-70
2021/01/21 10:01:52;;;;;;;1.63;1.00;;;16.50;94.00;;;;;;5024899;28;20182;-69
2021/01/21 10:04:18;;;;;;;1.53;1.43;;;16.30;94.20;;;;;;5027259;28;20645;-70
2021/01/21 10:06:43;;;;;;;6.83;1.80;;;16.80;93.50;;;;;;5008686;28;20210;-70
2021/01/21 10:09:09;;;;;;;3.50;1.13;;;18.10;91.70;;;;;;5021564;28;20202;-70
2021/01/21 10:11:35;;;;;;;1.40;1.30;;;18.40;89.40;;;;;;5027033;28;20192;-69
2021/01/21 10:14:01;;;;;;;1.50;1.40;;;18.20;87.50;;;;;;5026415;28;20205;-69
2021/01/21 10:16:28;;;;;;;1.53;1.40;;;17.30;89.70;;;;;;5008360;28;20194;-68
2021/01/21 10:18:54;;;;;;;3.20;1.50;;;16.90;90.40;;;;;;5026774;28;20494;-69
2021/01/21 10:21:19;;;;;;;4.00;1.47;;;16.70;90.90;;;;;;5026252;28;20486;-68
2021/01/21 10:23:45;;;;;;;2.70;1.40;;;17.30;90.70;;;;;;5021791;28;20190;-69
2021/01/21 10:26:10;;;;;;;1.70;1.30;;;17.70;88.90;;;;;;4998152;28;20178;-70
2021/01/21 10:28:36;;;;;;;4.47;3.03;;;18.30;87.50;;;;;;5022969;28;20195;-69
2021/01/21 10:31:01;;;;;;;1.77;1.67;;;19.00;84.00;;;;;;5020894;28;20220;-69
2021/01/21 10:33:27;;;;;;;1.40;1.30;;;19.40;81.80;;;;;;5027027;28;20548;-68
2021/01/21 10:35:52;;;;;;;1.60;1.40;;;18.20;83.60;;;;;;5022810;28;20169;-69
2021/01/21 10:38:18;;;;;;;1.67;1.57;;;16.60;88.70;;;;;;5026220;28;20205;-69
2021/01/21 10:40:43;;;;;;;1.53;1.30;;;15.70;92.10;;;;;;5028447;28;20181;-69
2021/01/21 10:43:09;;;;;;;2.30;1.60;;;16.00;92.00;;;;;;5016674;28;20194;-68
2021/01/21 10:45:34;;;;;;;2.93;1.50;;;16.60;91.60;;;;;;5030424;28;20875;-68
2021/01/21 10:48:00;;;;;;;1.20;1.10;;;16.10;91.90;;;;;;5030386;28;20685;-68
2021/01/21 10:50:26;;;;;;;2.10;1.80;;;15.60;92.40;;;;;;5028103;28;20894;-68
2021/01/21 10:52:51;;;;;;;4.27;3.17;;;15.10;98.90;;;;;;5025381;28;20174;-68
2021/01/21 10:55:17;;;;;;;1.23;1.13;;;13.80;99.90;;;;;;5030758;28;20182;-69
2021/01/21 10:57:43;;;;;;;3.93;1.47;;;13.10;99.90;;;;;;5030389;28;20194;-68
2021/01/21 11:00:09;;;;;;;3.20;1.50;;;13.60;99.90;;;;;;5028462;28;20526;-68
2021/01/21 11:02:35;;;;;;;2.80;1.37;;;14.20;99.90;;;;;;5030415;28;20965;-71
2021/01/21 11:05:00;;;;;;;2.50;1.10;;;13.70;99.90;;;;;;5024778;28;20433;-68
2021/01/21 11:07:26;;;;;;;1.60;1.13;;;13.30;99.90;;;;;;5024786;28;20210;-69
2021/01/21 11:09:52;;;;;;;1.03;0.93;;;14.20;99.90;;;;;;5026632;28;20304;-68
2021/01/21 11:12:17;;;;;;;1.83;1.33;;;14.80;99.90;;;;;;5029164;28;20178;-68
2021/01/21 11:14:45;;;;;;;4.10;1.40;;;14.70;99.90;;;;;;5025971;28;20652;-69
2021/01/21 11:17:11;;;;;;;1.73;1.20;;;14.40;99.90;;;;;;5028996;28;20198;-69
2021/01/21 11:19:36;;;;;;;1.57;1.30;;;13.60;99.90;;;;;;5023765;28;20498;-68
2021/01/21 11:22:02;;;;;;;2.33;1.50;;;13.40;99.90;;;;;;5020280;28;20190;-68
2021/01/21 11:24:27;;;;;;;2.23;2.00;;;13.50;99.90;;;;;;5026054;28;20617;-68
2021/01/21 11:26:53;;;;;;;2.83;2.30;;;13.40;99.90;;;;;;5028700;28;20225;-68
2021/01/21 11:29:18;;;;;;;1.83;1.60;;;13.10;99.90;;;;;;5031074;28;20206;-66
2021/01/21 11:31:44;;;;;;;4.50;1.57;;;13.00;99.90;;;;;;5030741;28;20182;-66
2021/01/21 11:34:09;;;;;;;3.00;1.90;;;13.80;99.90;;;;;;5029981;28;20952;-70
2021/01/21 11:36:35;;;;;;;2.00;1.60;;;15.20;99.90;;;;;;5011744;28;20201;-67
2021/01/21 11:39:00;;;;;;;2.47;1.80;;;15.00;99.90;;;;;;5030454;28;20196;-69
2021/01/21 11:41:26;;;;;;;2.37;2.07;;;14.50;99.90;;;;;;5029705;28;20210;-67
2021/01/21 11:43:52;;;;;;;2.03;1.83;;;14.00;99.90;;;;;;5027338;28;20236;-68
2021/01/21 11:46:17;;;;;;;2.73;2.40;;;13.50;99.90;;;;;;5028857;28;20232;-68
2021/01/21 11:48:43;;;;;;;3.03;1.67;;;13.40;99.90;;;;;;5029761;28;20185;-67
2021/01/21 11:51:09;;;;;;;3.53;2.03;;;13.20;99.90;;;;;;5028980;28;20923;-67
2021/01/21 11:53:34;;;;;;;2.30;1.70;;;13.00;99.90;;;;;;5029295;28;20201;-68
2021/01/21 11:56:01;;;;;;;3.27;2.00;;;12.90;99.90;;;;;;5029227;28;20244;-68
2021/01/21 11:58:27;;;;;;;4.20;2.27;;;13.00;99.90;;;;;;5027986;28;20200;-68
2021/01/21 12:00:53;;;;;;;3.63;2.30;;;13.10;99.90;;;;;;5031952;28;20847;-67
2021/01/21 12:03:18;;;;;;;3.50;2.50;;;12.90;99.90;;;;;;5031371;28;20177;-67
2021/01/21 12:05:44;;;;;;;5.40;2.50;;;12.80;99.90;;;;;;5031928;28;20184;-67
2021/01/21 12:08:10;;;;;;;2.63;1.83;;;12.70;99.90;;;;;;5030514;28;20713;-69
2021/01/21 12:10:35;;;;;;;3.50;2.53;;;12.60;99.90;;;;;;5027063;28;20473;-69
2021/01/21 12:13:01;;;;;;;3.30;1.80;;;12.60;99.90;;;;;;5032895;28;20171;-68
2021/01/21 12:15:27;;;;;;;2.57;1.90;;;12.60;99.90;;;;;;5031066;28;20174;-68
2021/01/21 12:17:53;;;;;;;1.70;1.60;;;12.80;99.90;;;;;;5029875;28;20234;-67
2021/01/21 12:20:20;;;;;;;2.27;1.90;;;12.80;99.90;;;;;;5011978;28;20487;-68
2021/01/21 12:22:46;;;;;;;2.43;1.50;;;12.60;99.90;;;;;;5018887;28;20997;-68
2021/01/21 12:25:12;;;;;;;2.33;1.50;;;12.50;99.90;;;;;;5018762;28;20460;-67
2021/01/21 12:27:37;;;;;;;1.50;1.40;;;12.60;99.90;;;;;;5019676;28;20505;-68
2021/01/21 12:30:04;;;;;;;3.10;2.37;;;12.70;99.90;;;;;;5029944;28;20214;-68
2021/01/21 12:32:29;;;;;;;3.27;1.43;;;12.70;99.90;;;;;;5022951;28;20191;-68
2021/01/21 12:34:55;;;;;;;2.23;2.03;;;12.70;99.90;;;;;;5028901;28;20437;-67
2021/01/21 12:37:20;;;;;;;5.23;1.80;;;12.80;99.90;;;;;;5023847;28;20201;-69
2021/01/21 12:39:46;;;;;;;1.70;1.10;;;12.90;99.90;;;;;;5021890;28;20182;-68
2021/01/21 12:42:12;;;;;;;3.03;1.50;;;12.70;99.90;;;;;;5028579;28;20616;-68
2021/01/21 12:44:38;;;;;;;1.83;1.37;;;12.80;99.90;;;;;;5021745;28;20205;-67
2021/01/21 12:47:03;;;;;;;1.73;1.40;;;12.70;99.90;;;;;;5007772;28;20457;-68
2021/01/21 12:49:29;;;;;;;1.57;1.47;;;12.40;99.90;;;;;;5020068;28;20202;-68
2021/01/21 12:51:54;;;;;;;2.67;1.47;;;12.10;99.90;;;;;;5016573;28;20195;-69
2021/01/21 12:54:20;;;;;;;3.80;1.67;;;12.10;99.90;;;;;;5030160;28;20657;-68
2021/01/21 12:56:45;;;;;;;2.07;1.57;;;12.40;99.90;;;;;;5030313;28;20198;-67
2021/01/21 12:59:11;;;;;;;2.07;1.73;;;12.60;99.90;;;;;;5024131;28;20182;-68